Time;durP1;ratioP1;P1;durP2;ratioP2;P2;SDS_P1;SDS_P2;PMS_P1;PMS_P2;Temp;Humidity;BMP_temperature;BMP_pressure;BME280_temperature;BME280_humidity;BME280_pressure;Samples;Min_cycle;Max_cycle;Signal;HPM_P1;HPM_P2
2021/06/24 00:01:46;;;;;;;7.10;6.40;;;19.40;56.00;;;;;;5032504;28;20033;-78
2021/06/24 00:04:12;;;;;;;6.28;5.57;;;19.40;56.10;;;;;;5037595;28;20044;-77
2021/06/24 00:06:38;;;;;;;7.13;6.43;;;19.40;56.10;;;;;;5029121;28;20033;-78
2021/06/24 00:09:06;;;;;;;6.60;5.85;;;19.30;56.00;;;;;;5039399;28;20332;-78
2021/06/24 00:11:32;;;;;;;7.20;6.65;;;19.30;56.10;;;;;;5049132;28;20033;-80
2021/06/24 00:13:58;;;;;;;7.07;6.38;;;19.30;56.10;;;;;;5050306;28;20697;-77
2021/06/24 00:16:26;;;;;;;7.03;6.32;;;19.30;56.20;;;;;;5048574;28;20122;-75
2021/06/24 00:18:52;;;;;;;6.60;5.93;;;19.30;56.20;;;;;;5050283;28;20025;-79
2021/06/24 00:21:18;;;;;;;7.03;6.30;;;19.30;56.30;;;;;;5065517;28;20036;-78
2021/06/24 00:23:45;;;;;;;6.68;6.07;;;19.20;56.20;;;;;;5050093;28;20180;-80
2021/06/24 00:26:11;;;;;;;7.20;6.45;;;19.20;56.20;;;;;;5047074;28;20033;-78
2021/06/24 00:28:37;;;;;;;7.90;6.10;;;19.20;56.90;;;;;;5050072;28;20025;-82
2021/06/24 00:31:03;;;;;;;6.60;6.00;;;19.20;56.90;;;;;;5032362;28;20111;-79
2021/06/24 00:33:30;;;;;;;7.30;6.07;;;19.20;56.40;;;;;;5032374;28;20556;-79
2021/06/24 00:35:57;;;;;;;6.50;5.60;;;19.10;56.30;;;;;;5032677;28;20053;-78
2021/06/24 00:38:22;;;;;;;7.53;6.75;;;19.10;56.30;;;;;;5049735;28;20099;-77
2021/06/24 00:40:49;;;;;;;7.07;6.38;;;19.10;56.40;;;;;;5049780;28;20045;-79
2021/06/24 00:43:18;;;;;;;6.43;5.78;;;19.10;56.40;;;;;;5048526;28;20094;-79
2021/06/24 00:45:46;;;;;;;7.15;6.00;;;19.10;56.50;;;;;;5049941;28;20055;-75
2021/06/24 00:48:13;;;;;;;6.55;6.03;;;19.10;56.50;;;;;;5048761;28;20040;-82
2021/06/24 00:50:43;;;;;;;7.32;6.43;;;19.00;56.40;;;;;;5049232;28;20041;-78
2021/06/24 00:53:10;;;;;;;7.05;6.45;;;19.00;56.40;;;;;;5048190;28;20025;-81
2021/06/24 00:55:42;;;;;;;6.70;6.10;;;19.00;56.50;;;;;;5050162;28;20037;-82
2021/06/24 00:58:20;;;;;;;6.82;6.10;;;19.00;56.50;;;;;;5051668;28;20086;-81
2021/06/24 01:00:58;;;;;;;7.70;6.50;;;19.00;56.70;;;;;;5049826;28;20455;-83
2021/06/24 01:03:25;;;;;;;8.15;5.88;;;19.00;56.70;;;;;;5032344;28;20032;-78
2021/06/24 01:05:53;;;;;;;6.93;6.25;;;19.00;56.60;;;;;;5033195;28;20052;-77
2021/06/24 01:08:24;;;;;;;6.55;6.05;;;19.00;56.60;;;;;;5051661;28;20036;-76
2021/06/24 01:10:54;;;;;;;10.88;6.78;;;18.90;56.50;;;;;;5050074;28;20036;-74
2021/06/24 01:13:22;;;;;;;5.80;5.15;;;18.90;56.50;;;;;;5047967;28;20131;-74
2021/06/24 01:15:48;;;;;;;7.53;6.32;;;18.90;56.60;;;;;;5049208;28;20025;-75
2021/06/24 01:18:14;;;;;;;6.15;5.65;;;18.90;56.60;;;;;;5048830;28;20033;-76
2021/06/24 01:20:41;;;;;;;6.53;5.88;;;18.90;56.70;;;;;;5047304;28;20500;-75
2021/06/24 01:23:18;;;;;;;6.32;5.72;;;18.90;56.80;;;;;;5047606;28;20768;-75
2021/06/24 01:25:44;;;;;;;6.72;6.13;;;18.90;56.80;;;;;;5038579;28;20032;-76
2021/06/24 01:28:11;;;;;;;6.13;5.53;;;18.80;56.70;;;;;;5047402;28;20029;-75
2021/06/24 01:30:41;;;;;;;6.75;6.05;;;18.90;56.90;;;;;;5046464;28;20036;-75
2021/06/24 01:33:09;;;;;;;7.43;6.10;;;18.80;56.80;;;;;;5013441;28;20064;-75
2021/06/24 01:35:36;;;;;;;6.50;5.90;;;18.80;56.80;;;;;;5048356;28;20024;-76
2021/06/24 01:38:10;;;;;;;7.65;6.78;;;18.80;56.80;;;;;;5065461;28;20036;-75
2021/06/24 01:40:45;;;;;;;8.15;7.10;;;18.80;57.00;;;;;;5048344;28;20048;-75
2021/06/24 01:43:11;;;;;;;6.95;6.35;;;18.80;56.80;;;;;;5048590;28;20036;-75
2021/06/24 01:45:53;;;;;;;6.80;6.10;;;18.70;57.30;;;;;;5043935;28;20033;-78
2021/06/24 01:48:21;;;;;;;7.40;6.68;;;18.70;56.80;;;;;;5049219;28;20083;-77
2021/06/24 01:50:47;;;;;;;6.85;6.07;;;18.70;56.80;;;;;;5050482;28;20032;-75
2021/06/24 01:53:14;;;;;;;7.20;6.57;;;18.70;56.80;;;;;;5051433;28;20029;-76
2021/06/24 01:55:41;;;;;;;7.68;6.43;;;18.70;56.90;;;;;;5051723;28;20032;-77
2021/06/24 01:58:21;;;;;;;7.63;6.43;;;18.70;56.90;;;;;;5052849;28;20070;-74
2021/06/24 02:01:10;;;;;;;6.90;6.20;;;18.70;57.00;;;;;;5041947;28;20049;-79
2021/06/24 02:04:03;;;;;;;6.85;6.20;;;18.70;57.00;;;;;;5050471;28;20037;-76
2021/06/24 02:06:29;;;;;;;6.70;5.97;;;18.60;56.80;;;;;;5052545;28;20068;-74
2021/06/24 02:09:07;;;;;;;7.43;6.72;;;18.60;56.80;;;;;;5052636;28;20036;-76
2021/06/24 02:11:47;;;;;;;7.10;6.43;;;18.60;56.90;;;;;;5050864;28;20445;-79
2021/06/24 02:14:15;;;;;;;6.63;6.00;;;18.60;56.90;;;;;;5068924;28;20426;-82
2021/06/24 02:16:42;;;;;;;7.60;6.63;;;18.50;56.80;;;;;;5068368;28;20393;-81
2021/06/24 02:19:08;;;;;;;7.72;6.95;;;18.50;56.80;;;;;;5068104;28;20036;-81
2021/06/24 02:22:00;;;;;;;7.13;6.43;;;18.50;56.80;;;;;;5060295;28;20067;-79
2021/06/24 02:24:29;;;;;;;6.88;6.20;;;18.60;57.10;;;;;;5067586;28;20025;-76
2021/06/24 02:26:59;;;;;;;7.57;6.63;;;18.50;56.90;;;;;;5066736;28;20425;-78
2021/06/24 02:29:45;;;;;;;7.80;6.93;;;18.50;57.00;;;;;;5052691;28;20036;-78
2021/06/24 02:32:12;;;;;;;7.05;6.32;;;18.50;57.00;;;;;;5067843;28;20041;-80
2021/06/24 02:34:52;;;;;;;6.85;6.25;;;18.50;57.00;;;;;;5067710;28;20036;-82
2021/06/24 02:37:28;;;;;;;6.70;6.00;;;18.50;57.00;;;;;;5051626;28;20020;-81
2021/06/24 02:40:21;;;;;;;7.07;6.25;;;18.40;56.90;;;;;;5042207;28;20048;-81
2021/06/24 02:42:48;;;;;;;8.27;6.57;;;18.50;57.10;;;;;;5050774;28;20059;-75
2021/06/24 02:45:16;;;;;;;7.43;6.72;;;18.40;57.00;;;;;;5067125;28;20052;-82
2021/06/24 02:47:45;;;;;;;8.27;6.75;;;18.40;57.00;;;;;;5050720;28;20025;-82
2021/06/24 02:50:13;;;;;;;6.80;6.20;;;18.40;57.10;;;;;;5050908;28;20024;-76
2021/06/24 02:52:41;;;;;;;8.23;7.53;;;18.40;57.10;;;;;;5052175;28;20065;-84
2021/06/24 02:55:15;;;;;;;9.10;7.78;;;18.40;57.10;;;;;;5051921;28;20032;-78
2021/06/24 02:57:53;;;;;;;7.13;6.43;;;18.40;57.20;;;;;;5050519;28;20044;-79
2021/06/24 03:00:39;;;;;;;8.23;7.43;;;18.40;57.20;;;;;;5050040;28;20497;-78
2021/06/24 03:03:19;;;;;;;7.43;6.78;;;18.30;57.00;;;;;;5067359;28;20077;-82
2021/06/24 03:06:01;;;;;;;7.90;7.20;;;18.30;57.10;;;;;;5065516;28;20029;-75
2021/06/24 03:08:28;;;;;;;7.03;6.43;;;18.30;57.10;;;;;;5051886;28;20021;-80
2021/06/24 03:11:01;;;;;;;7.80;7.10;;;18.30;57.20;;;;;;5050270;28;20417;-78
2021/06/24 03:13:28;;;;;;;7.60;6.90;;;18.30;57.20;;;;;;5066970;28;20047;-80
2021/06/24 03:15:54;;;;;;;7.85;6.95;;;18.30;57.20;;;;;;5050145;28;20025;-76
2021/06/24 03:18:20;;;;;;;8.35;7.57;;;18.20;57.10;;;;;;5051432;28;20120;-75
2021/06/24 03:20:47;;;;;;;6.75;6.10;;;18.20;57.10;;;;;;5051266;28;20037;-76
2021/06/24 03:23:14;;;;;;;7.90;7.13;;;18.20;57.20;;;;;;5049483;28;20049;-78
2021/06/24 03:25:43;;;;;;;9.30;7.18;;;18.20;57.20;;;;;;5066552;28;20040;-78
2021/06/24 03:28:09;;;;;;;8.18;7.35;;;18.20;57.20;;;;;;5066619;28;20481;-79
2021/06/24 03:31:04;;;;;;;7.22;6.57;;;18.20;57.30;;;;;;5037442;28;20047;-75
2021/06/24 03:33:34;;;;;;;7.85;6.70;;;18.20;57.20;;;;;;5050279;28;20040;-77
2021/06/24 03:36:02;;;;;;;8.38;7.57;;;18.20;57.30;;;;;;5066780;28;20075;-80
2021/06/24 03:38:28;;;;;;;8.00;7.20;;;18.10;57.10;;;;;;5066430;28;20036;-77
2021/06/24 03:40:55;;;;;;;8.60;7.80;;;18.10;57.20;;;;;;5049797;28;20128;-74
2021/06/24 03:43:22;;;;;;;8.35;7.47;;;18.20;57.40;;;;;;5066308;28;20477;-77
2021/06/24 03:45:48;;;;;;;7.97;7.28;;;18.10;57.20;;;;;;5033035;28;20037;-78
2021/06/24 03:48:14;;;;;;;10.05;7.63;;;18.10;57.20;;;;;;5049725;28;20484;-75
2021/06/24 03:50:41;;;;;;;7.32;6.63;;;18.10;57.30;;;;;;5050006;28;20100;-74
2021/06/24 03:53:07;;;;;;;8.40;7.55;;;18.10;57.30;;;;;;5066418;28;20030;-76
2021/06/24 03:55:44;;;;;;;8.93;7.20;;;18.10;57.40;;;;;;5049689;28;20037;-76
2021/06/24 03:58:48;;;;;;;7.72;7.03;;;18.00;57.20;;;;;;5035531;28;20033;-77
2021/06/24 04:01:15;;;;;;;7.80;7.10;;;18.00;57.20;;;;;;5050927;28;20435;-84
2021/06/24 04:03:41;;;;;;;8.02;7.32;;;18.00;57.20;;;;;;5051183;28;20037;-79
2021/06/24 04:06:09;;;;;;;8.25;7.43;;;18.00;57.30;;;;;;5051241;28;20029;-75
2021/06/24 04:08:36;;;;;;;8.50;7.80;;;18.00;57.30;;;;;;5049583;28;20067;-78
2021/06/24 04:11:23;;;;;;;7.85;7.18;;;18.00;57.30;;;;;;5063973;28;20415;-74
2021/06/24 04:13:57;;;;;;;7.70;7.00;;;18.00;57.30;;;;;;5066099;28;20029;-74
2021/06/24 04:16:43;;;;;;;8.10;7.30;;;17.90;57.20;;;;;;5029184;28;20572;-73
2021/06/24 04:19:10;;;;;;;8.23;7.53;;;17.90;57.20;;;;;;5050904;28;20036;-75
2021/06/24 04:21:37;;;;;;;7.78;7.03;;;17.90;57.80;;;;;;5032587;28;20047;-76
2021/06/24 04:24:04;;;;;;;8.45;7.20;;;17.90;57.20;;;;;;5066335;28;20116;-76
2021/06/24 04:26:30;;;;;;;7.78;6.82;;;17.90;57.30;;;;;;5066271;28;20028;-75
2021/06/24 04:28:57;;;;;;;8.25;7.45;;;17.90;57.30;;;;;;5056708;28;20420;-75
2021/06/24 04:31:23;;;;;;;8.45;7.70;;;17.90;57.30;;;;;;5049277;28;20048;-75
2021/06/24 04:33:49;;;;;;;8.27;7.50;;;17.90;57.40;;;;;;5066075;28;20048;-74
2021/06/24 04:36:21;;;;;;;8.38;7.47;;;17.90;57.40;;;;;;5053566;28;20071;-74
2021/06/24 04:38:53;;;;;;;8.07;7.28;;;17.90;57.40;;;;;;5069622;28;20699;-78
2021/06/24 04:41:20;;;;;;;8.23;7.45;;;17.90;57.50;;;;;;5066044;28;20041;-75
2021/06/24 04:44:05;;;;;;;8.82;7.93;;;17.90;57.50;;;;;;5054102;28;20175;-75
2021/06/24 04:46:33;;;;;;;8.75;7.95;;;17.90;57.50;;;;;;5053861;28;20029;-75
2021/06/24 04:49:03;;;;;;;8.32;7.55;;;17.90;57.50;;;;;;5032579;28;20542;-75
2021/06/24 04:51:47;;;;;;;7.93;7.13;;;17.90;57.50;;;;;;5050619;28;20055;-75
2021/06/24 04:54:23;;;;;;;7.63;7.03;;;17.90;57.50;;;;;;5046342;28;20571;-76
2021/06/24 04:56:50;;;;;;;8.57;7.88;;;17.90;57.50;;;;;;5039740;28;20032;-76
2021/06/24 04:59:21;;;;;;;8.10;7.40;;;17.90;57.50;;;;;;5041029;28;20029;-76
2021/06/24 05:02:22;;;;;;;8.93;8.13;;;17.90;57.50;;;;;;4981753;28;20035;-76
2021/06/24 05:05:08;;;;;;;9.05;8.13;;;17.90;57.50;;;;;;5034266;28;20113;-76
2021/06/24 05:07:36;;;;;;;9.70;8.70;;;17.90;57.50;;;;;;5032330;28;20068;-75
2021/06/24 05:10:06;;;;;;;8.82;8.02;;;17.90;57.50;;;;;;5048165;28;20491;-76
2021/06/24 05:12:32;;;;;;;8.35;7.55;;;17.90;57.50;;;;;;5042906;28;20056;-77
2021/06/24 05:15:00;;;;;;;9.40;8.25;;;18.00;57.70;;;;;;5037646;28;20025;-77
2021/06/24 05:17:26;;;;;;;8.50;7.70;;;18.10;57.90;;;;;;5039775;28;20028;-79
2021/06/24 05:19:52;;;;;;;9.48;7.50;;;18.00;57.60;;;;;;5035794;28;20033;-79
2021/06/24 05:22:18;;;;;;;8.98;8.05;;;18.10;57.80;;;;;;5035434;28;20040;-75
2021/06/24 05:24:44;;;;;;;8.50;7.78;;;18.10;57.80;;;;;;5036414;28;20032;-76
2021/06/24 05:27:10;;;;;;;8.27;7.60;;;18.20;57.90;;;;;;5054401;28;20033;-77
2021/06/24 05:29:36;;;;;;;8.15;7.45;;;18.20;57.80;;;;;;5044064;28;20025;-77
2021/06/24 05:32:03;;;;;;;8.05;7.25;;;18.30;57.90;;;;;;5048209;28;20408;-83
2021/06/24 05:34:31;;;;;;;8.75;7.85;;;18.40;58.10;;;;;;5047645;28;20299;-75
2021/06/24 05:36:57;;;;;;;8.45;7.65;;;18.40;58.00;;;;;;5064842;28;20033;-77
2021/06/24 05:39:23;;;;;;;8.02;7.28;;;18.40;57.90;;;;;;5048400;28;20419;-76
2021/06/24 05:41:50;;;;;;;8.00;7.20;;;18.50;58.10;;;;;;5048483;28;20078;-81
2021/06/24 05:44:16;;;;;;;9.32;8.40;;;18.50;58.00;;;;;;5023713;28;20097;-73
2021/06/24 05:46:42;;;;;;;8.75;7.95;;;18.60;58.10;;;;;;5038536;28;20033;-73
2021/06/24 05:49:08;;;;;;;8.73;7.85;;;18.60;58.10;;;;;;5048237;28;20082;-78
2021/06/24 05:51:34;;;;;;;10.05;8.68;;;18.80;58.30;;;;;;5046523;28;20025;-72
2021/06/24 05:54:00;;;;;;;8.73;7.93;;;18.90;58.40;;;;;;5038515;28;20400;-72
2021/06/24 05:56:26;;;;;;;10.35;9.40;;;19.00;58.40;;;;;;5046265;28;20478;-75
2021/06/24 05:58:52;;;;;;;15.65;13.30;;;19.00;58.30;;;;;;5047679;28;20087;-74
2021/06/24 06:01:20;;;;;;;15.38;13.77;;;19.10;58.60;;;;;;5029573;28;20042;-74
2021/06/24 06:03:47;;;;;;;16.75;15.00;;;19.20;59.00;;;;;;5026307;28;20033;-77
2021/06/24 06:06:12;;;;;;;15.82;14.38;;;19.30;59.30;;;;;;5048702;28;20214;-78
2021/06/24 06:08:38;;;;;;;16.10;14.40;;;19.40;59.50;;;;;;5043898;28;20022;-73
2021/06/24 06:11:04;;;;;;;15.32;13.93;;;19.50;59.80;;;;;;5035237;28;20032;-77
2021/06/24 06:13:30;;;;;;;14.85;13.27;;;19.60;60.00;;;;;;5041364;28;20249;-73
2021/06/24 06:15:57;;;;;;;13.65;12.25;;;19.70;60.30;;;;;;5034787;28;20029;-72
2021/06/24 06:18:25;;;;;;;15.65;12.85;;;19.80;60.80;;;;;;5038084;28;20033;-72
2021/06/24 06:20:53;;;;;;;13.88;12.27;;;19.80;60.90;;;;;;5026485;28;20071;-73
2021/06/24 06:23:21;;;;;;;14.30;12.35;;;19.90;61.10;;;;;;5029754;28;20429;-75
2021/06/24 06:25:48;;;;;;;14.60;12.75;;;20.00;61.20;;;;;;5042168;28;20184;-74
2021/06/24 06:28:15;;;;;;;14.23;12.80;;;20.10;61.40;;;;;;5043210;28;20564;-73
2021/06/24 06:30:42;;;;;;;13.35;11.90;;;20.10;61.60;;;;;;5043047;28;20291;-73
2021/06/24 06:33:09;;;;;;;13.80;12.18;;;20.30;61.80;;;;;;5037826;28;20064;-75
2021/06/24 06:35:35;;;;;;;14.07;12.68;;;20.30;61.70;;;;;;5045490;28;20328;-72
2021/06/24 06:38:02;;;;;;;13.63;12.27;;;20.40;61.70;;;;;;5044498;28;20464;-73
2021/06/24 06:40:28;;;;;;;12.98;11.38;;;20.50;61.70;;;;;;5044926;28;20033;-74
2021/06/24 06:42:54;;;;;;;13.75;12.35;;;20.50;61.60;;;;;;5046217;28;20184;-76
2021/06/24 06:45:22;;;;;;;13.60;11.80;;;20.60;61.70;;;;;;5045065;28;20044;-75
2021/06/24 06:47:48;;;;;;;12.43;11.30;;;20.70;61.70;;;;;;5045973;28;20028;-73
2021/06/24 06:50:15;;;;;;;12.90;11.70;;;20.70;61.60;;;;;;5046063;28;20064;-74
2021/06/24 06:52:42;;;;;;;13.13;11.88;;;20.90;61.80;;;;;;5038728;28;20033;-75
2021/06/24 06:55:08;;;;;;;11.80;10.80;;;20.90;61.60;;;;;;5026414;28;20033;-72
2021/06/24 06:57:35;;;;;;;12.98;11.23;;;21.00;61.60;;;;;;5026623;28;20038;-76
2021/06/24 07:00:05;;;;;;;13.40;12.10;;;21.10;61.60;;;;;;5027040;28;20136;-73
2021/06/24 07:02:30;;;;;;;12.85;11.65;;;21.20;61.60;;;;;;5037270;28;20116;-74
2021/06/24 07:04:57;;;;;;;13.98;12.52;;;21.30;61.60;;;;;;5044870;28;20108;-72
2021/06/24 07:07:22;;;;;;;12.68;11.57;;;21.50;61.70;;;;;;5028737;28;20036;-73
2021/06/24 07:09:49;;;;;;;12.65;11.50;;;21.60;61.60;;;;;;5046558;28;20116;-76
2021/06/24 07:12:15;;;;;;;12.73;11.48;;;21.70;61.50;;;;;;5045138;28;20029;-73
2021/06/24 07:14:41;;;;;;;13.45;12.05;;;21.90;61.60;;;;;;5045967;28;20298;-74
2021/06/24 07:17:07;;;;;;;12.80;11.60;;;22.00;61.50;;;;;;5046657;28;20096;-73
2021/06/24 07:19:33;;;;;;;13.20;11.77;;;22.10;61.30;;;;;;5027734;28;20061;-72
2021/06/24 07:21:59;;;;;;;12.52;11.32;;;22.30;61.40;;;;;;5024915;28;20043;-73
2021/06/24 07:24:25;;;;;;;12.25;11.00;;;22.40;61.30;;;;;;5026350;28;20035;-72
2021/06/24 07:26:51;;;;;;;12.05;10.95;;;22.50;61.20;;;;;;5008488;28;20120;-72
2021/06/24 07:29:19;;;;;;;11.57;10.57;;;22.60;61.10;;;;;;5026536;28;20037;-73
2021/06/24 07:31:45;;;;;;;12.10;10.90;;;22.70;61.60;;;;;;5027034;28;20607;-72
2021/06/24 07:34:12;;;;;;;12.95;11.45;;;22.90;61.10;;;;;;5025090;28;20174;-72
2021/06/24 07:36:39;;;;;;;12.07;11.07;;;23.00;61.10;;;;;;5026427;28;20033;-72
2021/06/24 07:39:05;;;;;;;11.55;10.50;;;23.10;61.00;;;;;;5024954;28;20033;-73
2021/06/24 07:41:31;;;;;;;12.10;10.90;;;23.20;60.80;;;;;;5024743;28;20069;-72
2021/06/24 07:43:58;;;;;;;12.13;10.88;;;23.40;60.90;;;;;;5024872;28;20029;-75
2021/06/24 07:46:24;;;;;;;11.10;10.20;;;23.50;60.60;;;;;;5025077;28;20236;-72
2021/06/24 07:48:50;;;;;;;11.85;10.73;;;23.60;61.00;;;;;;5026026;28;20034;-73
2021/06/24 07:51:17;;;;;;;12.50;11.30;;;23.70;60.30;;;;;;5024826;28;20117;-73
2021/06/24 07:53:43;;;;;;;12.18;11.02;;;23.80;60.30;;;;;;5040842;28;20396;-73
2021/06/24 07:56:13;;;;;;;12.00;10.80;;;23.90;60.20;;;;;;5044691;28;20029;-73
2021/06/24 07:58:39;;;;;;;11.23;10.23;;;23.90;60.00;;;;;;5024830;28;20087;-74
2021/06/24 08:01:06;;;;;;;11.85;10.77;;;24.00;60.10;;;;;;5026034;28;20041;-73
2021/06/24 08:03:34;;;;;;;11.85;10.75;;;23.90;59.80;;;;;;5038766;28;20056;-74
2021/06/24 08:06:01;;;;;;;10.95;9.95;;;23.90;59.70;;;;;;5045742;28;20033;-73
2021/06/24 08:08:27;;;;;;;11.73;10.63;;;24.00;59.80;;;;;;5044614;28;20059;-73
2021/06/24 08:10:55;;;;;;;10.88;9.98;;;24.00;59.70;;;;;;5046439;28;20064;-73
2021/06/24 08:13:22;;;;;;;10.77;9.88;;;24.00;59.60;;;;;;5048564;28;20116;-74
2021/06/24 08:15:49;;;;;;;12.93;10.60;;;24.00;59.50;;;;;;5048525;28;20033;-73
2021/06/24 08:18:15;;;;;;;11.05;9.95;;;24.00;59.40;;;;;;5048608;28;20472;-73
2021/06/24 08:20:42;;;;;;;11.20;9.63;;;24.00;59.30;;;;;;5036097;28;20295;-73
2021/06/24 08:23:09;;;;;;;9.68;8.82;;;24.00;59.80;;;;;;5043889;28;20024;-74
2021/06/24 08:25:35;;;;;;;10.00;8.98;;;24.00;59.10;;;;;;5048527;28;20036;-72
2021/06/24 08:28:01;;;;;;;8.75;7.88;;;24.00;59.00;;;;;;5048795;28;20032;-73
2021/06/24 08:30:27;;;;;;;10.13;9.25;;;24.00;58.90;;;;;;5049342;28;20025;-73
2021/06/24 08:32:53;;;;;;;9.60;8.75;;;24.00;58.80;;;;;;5040299;28;20068;-78
2021/06/24 08:35:20;;;;;;;13.10;9.82;;;23.90;58.60;;;;;;5029454;28;20029;-73
2021/06/24 08:37:47;;;;;;;9.93;8.93;;;23.90;58.80;;;;;;5047331;28;20395;-74
2021/06/24 08:40:14;;;;;;;11.65;8.88;;;24.00;59.00;;;;;;5049612;28;20383;-74
2021/06/24 08:42:41;;;;;;;9.75;8.85;;;24.00;58.80;;;;;;5049237;28;20379;-73
2021/06/24 08:45:09;;;;;;;9.93;9.07;;;24.10;58.90;;;;;;5048681;28;20040;-74
2021/06/24 08:47:36;;;;;;;10.10;8.25;;;24.10;58.80;;;;;;5041470;28;20064;-74
2021/06/24 08:50:02;;;;;;;9.30;8.50;;;24.10;58.80;;;;;;5047258;28;20037;-76
2021/06/24 08:52:28;;;;;;;8.90;8.00;;;24.10;58.80;;;;;;5048022;28;20074;-76
2021/06/24 08:54:55;;;;;;;11.68;8.32;;;24.10;58.80;;;;;;5045349;28;20040;-76
2021/06/24 08:57:21;;;;;;;9.20;8.40;;;24.10;58.90;;;;;;5039489;28;20032;-76
2021/06/24 08:59:47;;;;;;;8.98;8.27;;;24.10;58.80;;;;;;5019715;28;20343;-78
2021/06/24 09:02:17;;;;;;;12.30;8.57;;;24.10;58.70;;;;;;5029321;28;20032;-77
2021/06/24 09:04:49;;;;;;;8.40;7.55;;;24.10;58.70;;;;;;5021251;28;20052;-78
2021/06/24 09:07:21;;;;;;;8.38;7.68;;;24.10;58.70;;;;;;5043621;28;20029;-78
2021/06/24 09:09:52;;;;;;;8.63;7.72;;;24.20;58.90;;;;;;5027895;28;20037;-78
2021/06/24 09:12:18;;;;;;;10.00;9.00;;;24.20;58.90;;;;;;5040289;28;20124;-79
2021/06/24 09:14:48;;;;;;;9.13;8.23;;;24.20;58.90;;;;;;5028266;28;20033;-78
2021/06/24 09:17:40;;;;;;;8.40;7.60;;;24.20;58.90;;;;;;4995556;28;20115;-77
2021/06/24 09:20:27;;;;;;;8.32;7.63;;;24.30;59.10;;;;;;5010920;28;20503;-79
2021/06/24 09:23:08;;;;;;;8.70;7.90;;;24.40;59.10;;;;;;5040293;28;20061;-76
2021/06/24 09:25:36;;;;;;;9.13;8.32;;;24.40;59.10;;;;;;5027993;28;20048;-77
2021/06/24 09:28:04;;;;;;;8.48;7.78;;;24.50;59.20;;;;;;5032795;28;20029;-76
2021/06/24 09:30:35;;;;;;;9.35;8.48;;;24.50;59.20;;;;;;5063871;28;20407;-75
2021/06/24 09:33:10;;;;;;;8.80;8.02;;;24.50;59.10;;;;;;5038724;28;20042;-77
2021/06/24 09:35:37;;;;;;;7.95;7.25;;;24.50;59.10;;;;;;5027390;28;20029;-76
2021/06/24 09:38:14;;;;;;;7.95;7.10;;;24.60;59.20;;;;;;5027554;28;20037;-77
2021/06/24 09:40:54;;;;;;;8.65;7.93;;;24.60;59.20;;;;;;5028316;28;20041;-78
2021/06/24 09:43:37;;;;;;;8.57;7.70;;;24.70;59.30;;;;;;5027668;28;20092;-77
2021/06/24 09:46:07;;;;;;;8.35;7.65;;;24.80;59.30;;;;;;5010468;28;20029;-77
2021/06/24 09:48:38;;;;;;;8.77;7.78;;;24.90;59.40;;;;;;5026189;28;20485;-77
2021/06/24 09:51:24;;;;;;;7.15;6.55;;;25.10;59.50;;;;;;5027255;28;20030;-76
2021/06/24 09:54:13;;;;;;;8.27;7.57;;;25.20;59.30;;;;;;5026687;28;20041;-77
2021/06/24 09:56:45;;;;;;;7.20;6.60;;;25.50;59.20;;;;;;5026658;28;20037;-77
2021/06/24 09:59:13;;;;;;;7.47;6.80;;;25.80;59.00;;;;;;5027937;28;20113;-78
2021/06/24 10:01:50;;;;;;;7.72;7.03;;;26.00;58.60;;;;;;5027215;28;20049;-77
2021/06/24 10:04:21;;;;;;;7.60;6.90;;;26.20;58.20;;;;;;5026740;28;20029;-76
2021/06/24 10:06:53;;;;;;;7.38;6.68;;;26.30;58.10;;;;;;5028161;28;20039;-76
2021/06/24 10:09:20;;;;;;;7.30;6.60;;;26.30;57.90;;;;;;5026819;28;20116;-76
2021/06/24 10:11:47;;;;;;;7.15;6.65;;;26.40;58.40;;;;;;5026640;28;20216;-78
2021/06/24 10:14:16;;;;;;;7.55;6.80;;;26.50;57.80;;;;;;5026162;28;20041;-76
2021/06/24 10:16:50;;;;;;;8.45;6.68;;;26.70;57.70;;;;;;5026235;28;20391;-75
2021/06/24 10:19:19;;;;;;;10.82;9.73;;;26.80;57.60;;;;;;5026713;28;20025;-74
2021/06/24 10:21:53;;;;;;;9.52;8.73;;;27.00;57.00;;;;;;5025826;28;20110;-77
2021/06/24 10:24:30;;;;;;;9.45;8.55;;;27.10;56.50;;;;;;5008157;28;20053;-76
2021/06/24 10:26:58;;;;;;;9.32;8.43;;;27.00;56.50;;;;;;5008386;28;20080;-77
2021/06/24 10:29:24;;;;;;;9.50;8.60;;;27.00;55.60;;;;;;5024673;28;20026;-76
2021/06/24 10:31:53;;;;;;;10.15;9.10;;;26.90;55.40;;;;;;5026641;28;20140;-77
2021/06/24 10:34:20;;;;;;;9.27;8.38;;;26.80;55.20;;;;;;5033603;28;20048;-76
2021/06/24 10:37:23;;;;;;;8.50;7.60;;;26.70;55.20;;;;;;5045636;28;20024;-78
2021/06/24 10:39:52;;;;;;;9.93;8.73;;;26.50;55.10;;;;;;5025928;28;20030;-77
2021/06/24 10:42:20;;;;;;;10.10;8.70;;;26.40;55.10;;;;;;5029500;28;20052;-76
2021/06/24 10:44:54;;;;;;;9.57;8.68;;;26.20;55.30;;;;;;5046841;28;20021;-77
2021/06/24 10:47:35;;;;;;;9.48;8.68;;;26.10;55.50;;;;;;5045843;28;20029;-78
2021/06/24 10:50:26;;;;;;;11.68;9.50;;;26.10;55.60;;;;;;5047087;28;20055;-78
2021/06/24 10:52:53;;;;;;;9.85;8.95;;;26.10;55.50;;;;;;5046683;28;20033;-79
2021/06/24 10:55:31;;;;;;;9.02;8.20;;;26.10;55.70;;;;;;5046399;28;20178;-80
2021/06/24 10:58:00;;;;;;;11.68;9.77;;;26.10;55.70;;;;;;5045906;28;20025;-81
2021/06/24 11:00:46;;;;;;;10.73;9.70;;;26.10;55.50;;;;;;5046417;28;20109;-79
2021/06/24 11:03:26;;;;;;;10.68;9.68;;;26.20;55.60;;;;;;5047350;28;20481;-80
2021/06/24 11:05:55;;;;;;;10.00;9.00;;;26.10;55.50;;;;;;5046772;28;20061;-79
2021/06/24 11:08:29;;;;;;;11.05;9.38;;;26.20;55.50;;;;;;5038192;28;20032;-78
2021/06/24 11:10:58;;;;;;;11.10;10.07;;;26.20;55.40;;;;;;5025455;28;20033;-79
2021/06/24 11:13:45;;;;;;;12.48;11.18;;;26.20;55.40;;;;;;5037896;28;20488;-78
2021/06/24 11:16:15;;;;;;;11.43;10.43;;;26.10;55.10;;;;;;5027587;28;20045;-77
2021/06/24 11:18:42;;;;;;;11.88;10.68;;;26.10;55.20;;;;;;5023253;28;20061;-78
2021/06/24 11:21:14;;;;;;;11.80;10.70;;;26.10;55.30;;;;;;5023714;28;20053;-77
2021/06/24 11:24:00;;;;;;;10.90;9.88;;;26.10;55.40;;;;;;5024122;28;20773;-76
2021/06/24 11:26:26;;;;;;;9.48;8.48;;;26.10;55.50;;;;;;5025447;28;20033;-75
2021/06/24 11:28:55;;;;;;;9.52;8.27;;;26.20;55.50;;;;;;5025249;28;20473;-76
2021/06/24 11:37:02;;;;;;;9.30;8.30;;;26.40;55.00;;;;;;5024863;28;20033;-79
2021/06/24 11:39:40;;;;;;;10.38;9.40;;;26.50;54.90;;;;;;5022028;28;20052;-77
2021/06/24 11:42:15;;;;;;;9.32;7.90;;;26.50;54.50;;;;;;5008379;28;20496;-78
2021/06/24 11:44:53;;;;;;;9.98;7.85;;;26.50;54.60;;;;;;5041753;28;20408;-77
2021/06/24 11:47:26;;;;;;;7.80;7.20;;;26.70;54.50;;;;;;5028079;28;20036;-77
2021/06/24 12:01:04;;;;;;;7.90;7.20;;;27.20;53.60;;;;;;5029241;28;20369;-78
2021/06/24 12:03:30;;;;;;;7.90;7.10;;;27.20;53.40;;;;;;5044037;28;20017;-77
2021/06/24 12:05:58;;;;;;;8.13;7.30;;;27.10;53.30;;;;;;5028031;28;20494;-77
2021/06/24 12:08:27;;;;;;;6.95;6.35;;;27.00;53.20;;;;;;5027522;28;20510;-77
2021/06/24 12:11:08;;;;;;;7.88;7.18;;;26.80;53.30;;;;;;5044751;28;20044;-78
2021/06/24 12:13:36;;;;;;;8.57;7.80;;;26.70;53.50;;;;;;5027888;28;20033;-78
2021/06/24 12:16:03;;;;;;;8.68;7.90;;;26.60;53.70;;;;;;5044724;28;20502;-79
2021/06/24 12:18:35;;;;;;;7.88;7.07;;;26.50;53.80;;;;;;5041974;28;20036;-78
2021/06/24 12:21:13;;;;;;;7.93;7.22;;;26.40;53.90;;;;;;5025829;28;20033;-77
2021/06/24 12:23:46;;;;;;;9.05;6.88;;;26.40;54.20;;;;;;5024362;28;20079;-77
2021/06/24 12:26:14;;;;;;;9.13;8.18;;;26.30;54.40;;;;;;5027944;28;20147;-77
2021/06/24 12:28:42;;;;;;;7.75;7.05;;;26.30;54.40;;;;;;5001899;28;20022;-78
2021/06/24 12:31:23;;;;;;;8.43;7.68;;;26.20;54.50;;;;;;5007420;28;21760;-77
2021/06/24 12:34:02;;;;;;;8.88;8.13;;;26.20;54.70;;;;;;5024251;28;20453;-80
2021/06/24 12:36:33;;;;;;;9.15;8.27;;;26.10;54.80;;;;;;5023865;28;20030;-77
2021/06/24 12:39:03;;;;;;;9.10;8.40;;;26.00;55.10;;;;;;5043775;28;20096;-77
2021/06/24 12:41:30;;;;;;;8.93;8.02;;;26.00;55.20;;;;;;5027328;28;20041;-78
2021/06/24 12:44:01;;;;;;;7.60;6.93;;;25.90;55.30;;;;;;5028831;28;20120;-79
2021/06/24 12:46:33;;;;;;;8.20;7.40;;;25.80;55.70;;;;;;4992321;28;20034;-81
2021/06/24 12:49:13;;;;;;;9.23;7.30;;;25.80;56.00;;;;;;5016821;28;20026;-79
2021/06/24 12:51:40;;;;;;;9.10;8.35;;;25.60;56.20;;;;;;4994138;28;20269;-77
2021/06/24 12:54:20;;;;;;;8.82;7.95;;;25.60;56.50;;;;;;5044000;28;20037;-78
2021/06/24 12:56:48;;;;;;;8.90;7.85;;;25.50;56.60;;;;;;5025128;28;20021;-77
2021/06/24 12:59:21;;;;;;;10.13;8.40;;;25.50;56.80;;;;;;5039172;28;20045;-78
2021/06/24 13:01:53;;;;;;;10.97;8.57;;;25.50;56.90;;;;;;5011708;28;20041;-78
2021/06/24 13:04:23;;;;;;;10.00;9.02;;;25.60;56.90;;;;;;5025496;28;20040;-78
2021/06/24 13:06:51;;;;;;;8.48;7.72;;;25.60;56.90;;;;;;5011745;28;20029;-77
2021/06/24 13:09:41;;;;;;;9.10;8.30;;;25.60;56.90;;;;;;5022904;28;20036;-78
2021/06/24 13:12:08;;;;;;;7.68;6.97;;;25.60;57.00;;;;;;5027928;28;20030;-79
2021/06/24 13:14:41;;;;;;;7.13;6.43;;;25.70;56.90;;;;;;5011361;28;20067;-80
2021/06/24 13:17:11;;;;;;;8.40;7.70;;;25.80;57.00;;;;;;5028064;28;20029;-78